INFORMACIÓN METAR y TAF
METAR FOR LEMH
ADDS - METARS form results

(2234 UTC 24 October 2021)
Data provider http://aviationweather.gov/metar/data/
 
METAR text: LEMH 242230Z 05004KT 9999 FEW017 17/16 Q1020
Conditions at: LEMH (MAHON/MENORCA IS, ES) observed 2230 UTC 24 October 2021
Temperature: 17.0°C (63°F)
Dewpoint: 16.0°C (61°F) [RH = 94%]
Pressure (altimeter): 30.12 inches Hg (1020.0 mb)
Winds: from the NE (50 degrees) at 5 MPH (4 knots; 2.1 m/s)
Visibility: 6 or more miles (10+ km)
Ceiling: at least 12,000 feet AGL
Clouds: few clouds at 1700 feet AGL
Weather: no significant weather observed at this time

METAR text: LEMH 242200Z 05006KT 9999 FEW020 FEW025TCU 18/16 Q1020
Conditions at: LEMH (MAHON/MENORCA IS, ES) observed 2200 UTC 24 October 2021
Temperature: 18.0°C (64°F)
Dewpoint: 16.0°C (61°F) [RH = 88%]
Pressure (altimeter): 30.12 inches Hg (1020.0 mb)
Winds: from the NE (50 degrees) at 7 MPH (6 knots; 3.1 m/s)
Visibility: 6 or more miles (10+ km)
Ceiling: at least 12,000 feet AGL
Clouds: few clouds at 2000 feet AGL
few clouds at 2500 feet AGL
Weather: no significant weather observed at this time

Forecast for: AMD
Text: TAF AMD LEMH 242105Z 2421/2521 03006KT 9999 FEW040 TX22/2512Z TN15/2506Z
Forecast period: 2100 UTC 24 October 2021 to 2100 UTC 25 October 2021
Forecast type: FROM: standard forecast or significant change
Winds: from the NNE (30 degrees) at 7 MPH (6 knots; 3.1 m/s)
Visibility: 6 or more miles (10+ km)
Ceiling: at least 12,000 feet AGL
Clouds: few clouds at 4000 feet AGL
Weather: no significant weather forecast for this period
Text: TEMPO 2421/2503 TSRA FEW020CB
Forecast period: 2100 UTC 24 October 2021 to 0300 UTC 25 October 2021
Forecast type: TEMPORARY: The following changes expected for less than half the time period
Visibility: missing
Ceiling: at least 12,000 feet AGL
Clouds: few clouds at 2000 feet AGL
Weather: TSRA  (rain associated with thunderstorm(s))

 MAPA DE AEROPUERTO

 INFORMACIÓN DE PISTA
Pista 01L Longitud 7710 ft Ancho 148 ft
Elevación 277 ft Umbral desplazado 0 ft Rumbo de pista 9
Pista 19R Longitud 7710 ft Ancho 148 ft
Elevación 298 ft Umbral desplazado 0 ft Rumbo de pista 189
Pista 01R Longitud 6890 ft Ancho 148 ft
Elevación 272 ft Umbral desplazado 0 ft Rumbo de pista 9
Pista 19L Longitud 6890 ft Ancho 148 ft
Elevación 298 ft Umbral desplazado 0 ft Rumbo de pista 189

 FRECUANCIAS DEL AEROPUERTO
Tipo APP Nombre APP Frecuencia 119.65 MHZ
Tipo ATIS Nombre ATIS Frecuencia 112.6 MHZ
Tipo GND Nombre GND Frecuencia 121.75 MHZ
Tipo TWR Nombre TWR Frecuencia 118.2 MHZ

 RADIO AYUDAS DEL AEROPUERTO
Tipo VOR-DME Nombre Menorca Frecuencia 112600 KHZ
Tipo NDB Nombre Menorca Frecuencia 344 KHZ




Normativa | Spanair Virtual © 2021 |